KFLD/FLD METAR and TAF weather

Enter ICAO airport designator
Station Type Date Time Source
KFLD METAR 2019/12/16 05:53 UTC NOAA

KFLD 160553Z AUTO 00000KT 10SM OVC080 M07/M12 A3012 RMK AO2 SLP215 60000 T10721117 11072 21094 410501128 50003


Station Type Date Time Source
KFLD Decoded METAR 2019/12/16 05:53 UTC NOAA

FOND DU LAC COUNTY AIRPORT, WI, United States (KFLD) 43-46N 88-29W 240M
Dec 16, 2019 - 12:53 AM EST / 2019.12.16 0553 UTC
Wind: Calm:0
Visibility: 10 mile(s):0
Sky conditions: overcast
Temperature: 19.0 F (-7.2 C)
Dew Point: 10.9 F (-11.7 C)
Relative Humidity: 70%
Pressure (altimeter): 30.12 in. Hg (1019 hPa)
Pressure tendency: 0.01 inches (0.3 hPa) higher than three hours ago
ob: KFLD 160553Z AUTO 00000KT 10SM OVC080 M07/M12 A3012 RMK AO2 SLP215 60000 T10721117 11072 21094 410501128 50003
cycle: 6

Station Type Date Time Source
KFLD TAF UTC NOAA

Error!

Example: see airport list